OMEGA LAV

INFORMACIÓN METAR y TAF
METAR FOR LEAM
ADDS - METARS form results

(0128 UTC 11 December 2018)
Data provider http://aviationweather.gov/metar/data/
 
METAR text: LEAM 110100Z AUTO 34006KT 9999 ////// 11/08 Q1024
Conditions at: LEAM (ALMERIA AIRPORT , ES) observed 0100 UTC 11 December 2018
Temperature: 11.0°C (52°F)
Dewpoint: 8.0°C (46°F) [RH = 82%]
Pressure (altimeter): 30.24 inches Hg (1024.0 mb)
Winds: from the NNW (340 degrees) at 7 MPH (6 knots; 3.1 m/s)
Visibility: 6 or more miles (10+ km)
Ceiling: unknown
Clouds: missing
Weather: no significant weather observed at this time

METAR text: LEAM 110030Z AUTO 33008KT 9999 ////// 12/09 Q1025
Conditions at: LEAM (ALMERIA AIRPORT , ES) observed 0030 UTC 11 December 2018
Temperature: 12.0°C (54°F)
Dewpoint: 9.0°C (48°F) [RH = 82%]
Pressure (altimeter): 30.27 inches Hg (1025.0 mb)
Winds: from the NNW (330 degrees) at 9 MPH (8 knots; 4.1 m/s)
Visibility: 6 or more miles (10+ km)
Ceiling: unknown
Clouds: missing
Weather: no significant weather observed at this time

Forecast for: LEAM (ALMERIA AIRPORT , ES)
Text: TAF LEAM 102000Z 1021/1121 35006KT CAVOK TX18/1113Z TN09/1106Z
Forecast period: 2100 UTC 10 December 2018 to 0900 UTC 11 December 2018
Forecast type: FROM: standard forecast or significant change
Winds: from the N (350 degrees) at 7 MPH (6 knots; 3.1 m/s)
Visibility: 6 or more miles 10+ km)
Ceiling: unknown
Clouds: missing
Weather: no significant weather forecast for this period
Text: BECMG 1109/1112 21013KT
Forecast period: 0900 to 2100 UTC 11 December 2018
Forecast type: BECOMING: Conditions expected to become as follows by 1200 UTC 11 December 2018
Winds: from the SSW (210 degrees) at 15 MPH (13 knots; 6.7 m/s)
Visibility: 6 or more miles 10+ km)
Ceiling: unknown
Clouds: missing
Weather: no significant weather forecast for this period

MAPA DE AEROPUERTO

INFORMACIÓN DE PISTA
Pista 08 Longitud 10499 ft Ancho 148 ft
Elevación 26 ft Umbral desplazado 492 ft Rumbo de pista 73
Pista 26 Longitud 10499 ft Ancho 148 ft
Elevación 70 ft Umbral desplazado 0 ft Rumbo de pista 253

FRECUANCIAS DEL AEROPUERTO
Tipo APP Nombre APP Frecuencia 118.35 MHZ
Tipo GND Nombre GND Frecuencia 121.7 MHZ
Tipo TWR Nombre TWR Frecuencia 118.35 MHZ

RADIO AYUDAS DEL AEROPUERTO
Tipo NDB Nombre Almeria Frecuencia 284 KHZ
Tipo NDB Nombre Almeria Frecuencia 310 KHZ
Tipo VOR-DME Nombre Almeria Frecuencia 114100 KHZ


Normativa | Powered by VAM 2.5.1 | Customized by Aisa © 2018